Adventuress — WCX8691 — position and weather

sailwx.info

Track history (hours):
 
Tides and Currents Weather Stations Pressure Air Temp Water Temp Dewpoint Dewpoint Depression Visibility Wind Speed Wind Dir Waves Ship Positions

Adventuress (United States)

Ship's website: http://www.soundexp.org/

Owner: SOUND EXPERIENCE, PORT TOWNSEND, WA. More information available from US FCC via Universal Licensing System and Coast Guard Vessel Documentation Center.

Last reported at 2017-Aug-15 02:13 UTC. Time now 2017-Aug-18 03:05 UTC.
Position N 48°34' W 122°59'.

Type: Passenger vessel. MMSI: 367323180.

Date/timePositionNaut miles runAvg speedWind from/ knotsBaromVisibWave heightAir tempDewpointWater temp
2017-Aug-15 02:13N 48°34' W 122°59'0 0.1
2017-Aug-15 01:36N 48°34' W 122°59'0 2.1
2017-Aug-15 01:26N 48°34' W 122°59'2 0.4
2017-Aug-14 21:11N 48°32' W 123°01'0 0.2
2017-Aug-14 21:00N 48°32' W 123°01'1 1.4
2017-Aug-14 20:25N 48°33' W 122°60'0 0.7
2017-Aug-14 20:00N 48°33' W 122°59'1 1.8
2017-Aug-14 19:29N 48°32' W 122°58'1 2.3
2017-Aug-14 19:00N 48°32' W 122°56'2 2.8
2017-Aug-14 18:12N 48°34' W 122°54'1 2.4
2017-Aug-14 17:43N 48°34' W 122°52'11 0.5
2017-Aug-13 19:30N 48°31' W 122°36'0 0.0
2017-Aug-13 18:54N 48°31' W 122°36'0 0.0
2017-Aug-13 18:30N 48°31' W 122°36'0 0.0
2017-Aug-13 18:00N 48°31' W 122°36'0 0.0
2017-Aug-13 17:30N 48°31' W 122°36'0 0.0
2017-Aug-13 17:00N 48°31' W 122°36'0 0.0
2017-Aug-13 16:30N 48°31' W 122°36'0 0.0
2017-Aug-13 16:00N 48°31' W 122°36'0 0.0
2017-Aug-13 15:30N 48°31' W 122°36'0 0.0
2017-Aug-13 15:00N 48°31' W 122°36'0 0.0
2017-Aug-13 14:30N 48°31' W 122°36'0 0.0
2017-Aug-13 14:00N 48°31' W 122°36'0 0.0
2017-Aug-13 13:30N 48°31' W 122°36'0 0.0
2017-Aug-13 13:00N 48°31' W 122°36'0 0.0
2017-Aug-13 12:30N 48°31' W 122°36'0 0.0
2017-Aug-13 12:00N 48°31' W 122°36'0 0.0
2017-Aug-13 11:30N 48°31' W 122°36'0 0.0
2017-Aug-13 10:54N 48°31' W 122°36'0 0.0
2017-Aug-13 10:30N 48°31' W 122°36'0 0.0
2017-Aug-13 09:54N 48°31' W 122°36'0 0.0
2017-Aug-13 09:30N 48°31' W 122°36'0 0.0
2017-Aug-13 09:00N 48°31' W 122°36'0 0.0
2017-Aug-13 08:30N 48°31' W 122°36'0 0.0
2017-Aug-13 08:00N 48°31' W 122°36'0 0.0
2017-Aug-13 07:30N 48°31' W 122°36'0 0.0
2017-Aug-13 07:00N 48°31' W 122°36'0 0.0
2017-Aug-13 06:30N 48°31' W 122°36'0 0.0
2017-Aug-13 06:00N 48°31' W 122°36'0 0.0
2017-Aug-13 05:30N 48°31' W 122°36'0 0.0
2017-Aug-13 05:00N 48°31' W 122°36'0 0.0
2017-Aug-13 04:30N 48°31' W 122°36'0 0.0
2017-Aug-13 04:00N 48°31' W 122°36'0 0.0
2017-Aug-13 03:30N 48°31' W 122°36'0 0.0
2017-Aug-13 03:00N 48°31' W 122°36'0 0.0
2017-Aug-13 02:24N 48°31' W 122°36'0 0.0
2017-Aug-13 02:00N 48°31' W 122°36'0 0.0
2017-Aug-13 01:30N 48°31' W 122°36'0 0.0
2017-Aug-13 01:00N 48°31' W 122°36'0 0.0
2017-Aug-13 00:30N 48°31' W 122°36'0 0.0
2017-Aug-12 23:54N 48°31' W 122°36'0 0.0
2017-Aug-12 23:30N 48°31' W 122°36'0 0.0
2017-Aug-12 23:00N 48°31' W 122°36'0 0.0
2017-Aug-12 22:30N 48°31' W 122°36'1 1.9
2017-Aug-12 22:00N 48°31' W 122°35'0 0.4
2017-Aug-12 21:30N 48°31' W 122°35'0 0.7
2017-Aug-12 21:00N 48°32' W 122°35'1 1.5
2017-Aug-12 20:30N 48°32' W 122°36'1 2.2
2017-Aug-12 20:00N 48°31' W 122°36'0 0.7
2017-Aug-12 19:22N 48°31' W 122°36'0 0.0
2017-Aug-12 18:58N 48°31' W 122°36'0 0.0
2017-Aug-12 18:28N 48°31' W 122°36'0 0.0
2017-Aug-12 17:58N 48°31' W 122°36'0 0.0
2017-Aug-12 17:28N 48°31' W 122°36'0 0.0
2017-Aug-12 16:58N 48°31' W 122°36'0 0.0
2017-Aug-12 16:28N 48°31' W 122°36'0 0.0
2017-Aug-12 15:58N 48°31' W 122°36'0 0.0
2017-Aug-12 15:28N 48°31' W 122°36'0 0.0
2017-Aug-12 14:58N 48°31' W 122°36'0 0.0
2017-Aug-12 14:28N 48°31' W 122°36'0 0.0
2017-Aug-12 13:58N 48°31' W 122°36'0 0.0
2017-Aug-12 13:28N 48°31' W 122°36'0 0.0
2017-Aug-12 12:58N 48°31' W 122°36'0 0.0
2017-Aug-12 12:28N 48°31' W 122°36'0 0.0
2017-Aug-12 11:58N 48°31' W 122°36'0 0.0
2017-Aug-12 11:28N 48°31' W 122°36'0 0.0
2017-Aug-12 10:58N 48°31' W 122°36'0 0.0
2017-Aug-12 10:28N 48°31' W 122°36'0 0.0
2017-Aug-12 09:58N 48°31' W 122°36'0 0.0
2017-Aug-12 09:28N 48°31' W 122°36'0 0.0
2017-Aug-12 08:58N 48°31' W 122°36'0 0.0
2017-Aug-12 08:28N 48°31' W 122°36'0 0.0
2017-Aug-12 07:58N 48°31' W 122°36'0 0.0
2017-Aug-12 07:22N 48°31' W 122°36'0 0.0
2017-Aug-12 06:52N 48°31' W 122°36'0 0.0
2017-Aug-12 06:28N 48°31' W 122°36'0 0.0
2017-Aug-12 05:58N 48°31' W 122°36'0 0.0
2017-Aug-12 05:28N 48°31' W 122°36'0 0.0
2017-Aug-12 04:58N 48°31' W 122°36'0 0.0
2017-Aug-12 04:22N 48°31' W 122°36'0 0.0
2017-Aug-12 03:58N 48°31' W 122°36'0 0.0
2017-Aug-12 03:28N 48°31' W 122°36'0 0.0
2017-Aug-12 02:58N 48°31' W 122°36'0 0.0
2017-Aug-12 02:28N 48°31' W 122°36'0 0.0
2017-Aug-12 01:52N 48°31' W 122°36'0 0.0
2017-Aug-12 01:28N 48°31' W 122°36'0 0.0
2017-Aug-12 00:58N 48°31' W 122°36'0 0.0
2017-Aug-12 00:22N 48°31' W 122°36'0 0.0
2017-Aug-11 23:58N 48°31' W 122°36'0 0.0
2017-Aug-11 23:28N 48°31' W 122°36'0 0.0
2017-Aug-11 22:58N 48°31' W 122°36'0 0.0
2017-Aug-11 22:28N 48°31' W 122°36'0 0.0
2017-Aug-11 21:58N 48°31' W 122°36'0 0.0
2017-Aug-11 21:28N 48°31' W 122°36'0 0.0
2017-Aug-11 20:58N 48°31' W 122°36'0 0.0
2017-Aug-11 20:28N 48°31' W 122°36'0 0.2
2017-Aug-11 19:58N 48°31' W 122°36'0 0.0
2017-Aug-11 19:22N 48°31' W 122°36'0 0.0
2017-Aug-11 18:58N 48°31' W 122°36'0 0.0
2017-Aug-11 18:28N 48°31' W 122°36'0 0.0
2017-Aug-11 17:52N 48°31' W 122°36'0 0.0
2017-Aug-11 17:22N 48°31' W 122°36'0 0.0
2017-Aug-11 16:58N 48°31' W 122°36'0 0.0
2017-Aug-11 16:28N 48°31' W 122°36'0 0.0
2017-Aug-11 15:58N 48°31' W 122°36'0 0.0
2017-Aug-11 15:28N 48°31' W 122°36'0 0.0
2017-Aug-11 14:58N 48°31' W 122°36'0 0.0
2017-Aug-11 13:58N 48°31' W 122°36'0 0.0
2017-Aug-11 13:28N 48°31' W 122°36'0 0.0
2017-Aug-11 12:58N 48°31' W 122°36'0 0.0
2017-Aug-11 12:28N 48°31' W 122°36'0 0.0
2017-Aug-11 11:58N 48°31' W 122°36'0 0.0
2017-Aug-11 11:28N 48°31' W 122°36'0 0.0
2017-Aug-11 10:58N 48°31' W 122°36'0 0.0
2017-Aug-11 10:28N 48°31' W 122°36'0 0.0
2017-Aug-11 09:58N 48°31' W 122°36'0 0.0
2017-Aug-11 09:28N 48°31' W 122°36'0 0.0
2017-Aug-11 08:58N 48°31' W 122°36'0 0.0
2017-Aug-11 08:22N 48°31' W 122°36'0 0.0
2017-Aug-11 07:58N 48°31' W 122°36'0 0.0
2017-Aug-11 07:28N 48°31' W 122°36'0 0.0
2017-Aug-11 06:58N 48°31' W 122°36'0 0.0
2017-Aug-11 06:28N 48°31' W 122°36'0 0.0
2017-Aug-11 06:00N 48°31' W 122°36'0 0.1
2017-Aug-11 05:30N 48°31' W 122°36'0 0.8
2017-Aug-11 05:01N 48°31' W 122°36'0 0.3
2017-Aug-11 04:30N 48°31' W 122°36'1 2.9
2017-Aug-11 04:00N 48°32' W 122°34'12 1.3
2017-Aug-10 18:22N 48°33' W 122°53'1 0.1
2017-Aug-10 00:54N 48°35' W 122°53'3 6.3
2017-Aug-10 00:30N 48°33' W 122°56'1 2.0
2017-Aug-10 00:00N 48°32' W 122°56'1 1.0
2017-Aug-09 23:30N 48°31' W 122°56'1 1.9
2017-Aug-09 23:00N 48°32' W 122°57'0 0.5
2017-Aug-09 22:29N 48°32' W 122°57'1 2.1
2017-Aug-09 21:56N 48°32' W 122°58'1 2.1
2017-Aug-09 21:30N 48°33' W 122°60'1 1.4
2017-Aug-09 20:55N 48°33' W 123°01'0 0.0
2017-Aug-09 19:18N 48°33' W 123°01'0 0.9
2017-Aug-09 19:00N 48°32' W 123°01'0 0.0
2017-Aug-09 18:30N 48°32' W 123°01'0 0.0
2017-Aug-09 17:52N 48°32' W 123°01'0 0.0
2017-Aug-09 17:25N 48°32' W 123°01'0 0.5
2017-Aug-09 16:59N 48°33' W 123°01'0 0.0
2017-Aug-09 16:28N 48°33' W 123°01'7 0.2
2017-Aug-07 20:50N 48°33' W 122°50'0 1.2
2017-Aug-07 20:28N 48°33' W 122°50'  
Track history (hours):
 
Tides and Currents Weather Stations Pressure Air Temp Water Temp Dewpoint Dewpoint Depression Visibility Wind Speed Wind Dir Waves Ship Positions

Adventuress (United States)

Ship's website: http://www.soundexp.org/

Owner: SOUND EXPERIENCE, PORT TOWNSEND, WA. More information available from US FCC via Universal Licensing System and Coast Guard Vessel Documentation Center.

Last reported at 2017-Aug-15 02:13 UTC. Time now 2017-Aug-18 03:06 UTC.
Position N 48°34' W 122°59'.

Type: Passenger vessel. MMSI: 367323180.

Date/timePositionNaut miles runAvg speedWind from/ knotsBaromVisibWave heightAir tempDewpointWater temp
2017-Aug-15 02:13N 48°34' W 122°59'0 0.1
2017-Aug-15 01:36N 48°34' W 122°59'0 2.1
2017-Aug-15 01:26N 48°34' W 122°59'2 0.4
2017-Aug-14 21:11N 48°32' W 123°01'0 0.2
2017-Aug-14 21:00N 48°32' W 123°01'1 1.4
2017-Aug-14 20:25N 48°33' W 122°60'0 0.7
2017-Aug-14 20:00N 48°33' W 122°59'1 1.8
2017-Aug-14 19:29N 48°32' W 122°58'1 2.3
2017-Aug-14 19:00N 48°32' W 122°56'2 2.8
2017-Aug-14 18:12N 48°34' W 122°54'1 2.4
2017-Aug-14 17:43N 48°34' W 122°52'11 0.5
2017-Aug-13 19:30N 48°31' W 122°36'0 0.0
2017-Aug-13 18:54N 48°31' W 122°36'0 0.0
2017-Aug-13 18:30N 48°31' W 122°36'0 0.0
2017-Aug-13 18:00N 48°31' W 122°36'0 0.0
2017-Aug-13 17:30N 48°31' W 122°36'0 0.0
2017-Aug-13 17:00N 48°31' W 122°36'0 0.0
2017-Aug-13 16:30N 48°31' W 122°36'0 0.0
2017-Aug-13 16:00N 48°31' W 122°36'0 0.0
2017-Aug-13 15:30N 48°31' W 122°36'0 0.0
2017-Aug-13 15:00N 48°31' W 122°36'0 0.0
2017-Aug-13 14:30N 48°31' W 122°36'0 0.0
2017-Aug-13 14:00N 48°31' W 122°36'0 0.0
2017-Aug-13 13:30N 48°31' W 122°36'0 0.0
2017-Aug-13 13:00N 48°31' W 122°36'0 0.0
2017-Aug-13 12:30N 48°31' W 122°36'0 0.0
2017-Aug-13 12:00N 48°31' W 122°36'0 0.0
2017-Aug-13 11:30N 48°31' W 122°36'0 0.0
2017-Aug-13 10:54N 48°31' W 122°36'0 0.0
2017-Aug-13 10:30N 48°31' W 122°36'0 0.0
2017-Aug-13 09:54N 48°31' W 122°36'0 0.0
2017-Aug-13 09:30N 48°31' W 122°36'0 0.0
2017-Aug-13 09:00N 48°31' W 122°36'0 0.0
2017-Aug-13 08:30N 48°31' W 122°36'0 0.0
2017-Aug-13 08:00N 48°31' W 122°36'0 0.0
2017-Aug-13 07:30N 48°31' W 122°36'0 0.0
2017-Aug-13 07:00N 48°31' W 122°36'0 0.0
2017-Aug-13 06:30N 48°31' W 122°36'0 0.0
2017-Aug-13 06:00N 48°31' W 122°36'0 0.0
2017-Aug-13 05:30N 48°31' W 122°36'0 0.0
2017-Aug-13 05:00N 48°31' W 122°36'0 0.0
2017-Aug-13 04:30N 48°31' W 122°36'0 0.0
2017-Aug-13 04:00N 48°31' W 122°36'0 0.0
2017-Aug-13 03:30N 48°31' W 122°36'0 0.0
2017-Aug-13 03:00N 48°31' W 122°36'0 0.0
2017-Aug-13 02:24N 48°31' W 122°36'0 0.0
2017-Aug-13 02:00N 48°31' W 122°36'0 0.0
2017-Aug-13 01:30N 48°31' W 122°36'0 0.0
2017-Aug-13 01:00N 48°31' W 122°36'0 0.0
2017-Aug-13 00:30N 48°31' W 122°36'0 0.0
2017-Aug-12 23:54N 48°31' W 122°36'0 0.0
2017-Aug-12 23:30N 48°31' W 122°36'0 0.0
2017-Aug-12 23:00N 48°31' W 122°36'0 0.0
2017-Aug-12 22:30N 48°31' W 122°36'1 1.9
2017-Aug-12 22:00N 48°31' W 122°35'0 0.4
2017-Aug-12 21:30N 48°31' W 122°35'0 0.7
2017-Aug-12 21:00N 48°32' W 122°35'1 1.5
2017-Aug-12 20:30N 48°32' W 122°36'1 2.2
2017-Aug-12 20:00N 48°31' W 122°36'0 0.7
2017-Aug-12 19:22N 48°31' W 122°36'0 0.0
2017-Aug-12 18:58N 48°31' W 122°36'0 0.0
2017-Aug-12 18:28N 48°31' W 122°36'0 0.0
2017-Aug-12 17:58N 48°31' W 122°36'0 0.0
2017-Aug-12 17:28N 48°31' W 122°36'0 0.0
2017-Aug-12 16:58N 48°31' W 122°36'0 0.0
2017-Aug-12 16:28N 48°31' W 122°36'0 0.0
2017-Aug-12 15:58N 48°31' W 122°36'0 0.0
2017-Aug-12 15:28N 48°31' W 122°36'0 0.0
2017-Aug-12 14:58N 48°31' W 122°36'0 0.0
2017-Aug-12 14:28N 48°31' W 122°36'0 0.0
2017-Aug-12 13:58N 48°31' W 122°36'0 0.0
2017-Aug-12 13:28N 48°31' W 122°36'0 0.0
2017-Aug-12 12:58N 48°31' W 122°36'0 0.0
2017-Aug-12 12:28N 48°31' W 122°36'0 0.0
2017-Aug-12 11:58N 48°31' W 122°36'0 0.0
2017-Aug-12 11:28N 48°31' W 122°36'0 0.0
2017-Aug-12 10:58N 48°31' W 122°36'0 0.0
2017-Aug-12 10:28N 48°31' W 122°36'0 0.0
2017-Aug-12 09:58N 48°31' W 122°36'0 0.0
2017-Aug-12 09:28N 48°31' W 122°36'0 0.0
2017-Aug-12 08:58N 48°31' W 122°36'0 0.0
2017-Aug-12 08:28N 48°31' W 122°36'0 0.0
2017-Aug-12 07:58N 48°31' W 122°36'0 0.0
2017-Aug-12 07:22N 48°31' W 122°36'0 0.0
2017-Aug-12 06:52N 48°31' W 122°36'0 0.0
2017-Aug-12 06:28N 48°31' W 122°36'0 0.0
2017-Aug-12 05:58N 48°31' W 122°36'0 0.0
2017-Aug-12 05:28N 48°31' W 122°36'0 0.0
2017-Aug-12 04:58N 48°31' W 122°36'0 0.0
2017-Aug-12 04:22N 48°31' W 122°36'0 0.0
2017-Aug-12 03:58N 48°31' W 122°36'0 0.0
2017-Aug-12 03:28N 48°31' W 122°36'0 0.0
2017-Aug-12 02:58N 48°31' W 122°36'0 0.0
2017-Aug-12 02:28N 48°31' W 122°36'0 0.0
2017-Aug-12 01:52N 48°31' W 122°36'0 0.0
2017-Aug-12 01:28N 48°31' W 122°36'0 0.0
2017-Aug-12 00:58N 48°31' W 122°36'0 0.0
2017-Aug-12 00:22N 48°31' W 122°36'0 0.0
2017-Aug-11 23:58N 48°31' W 122°36'0 0.0
2017-Aug-11 23:28N 48°31' W 122°36'0 0.0
2017-Aug-11 22:58N 48°31' W 122°36'0 0.0
2017-Aug-11 22:28N 48°31' W 122°36'0 0.0
2017-Aug-11 21:58N 48°31' W 122°36'0 0.0
2017-Aug-11 21:28N 48°31' W 122°36'0 0.0
2017-Aug-11 20:58N 48°31' W 122°36'0 0.0
2017-Aug-11 20:28N 48°31' W 122°36'0 0.2
2017-Aug-11 19:58N 48°31' W 122°36'0 0.0
2017-Aug-11 19:22N 48°31' W 122°36'0 0.0
2017-Aug-11 18:58N 48°31' W 122°36'0 0.0
2017-Aug-11 18:28N 48°31' W 122°36'0 0.0
2017-Aug-11 17:52N 48°31' W 122°36'0 0.0
2017-Aug-11 17:22N 48°31' W 122°36'0 0.0
2017-Aug-11 16:58N 48°31' W 122°36'0 0.0
2017-Aug-11 16:28N 48°31' W 122°36'0 0.0
2017-Aug-11 15:58N 48°31' W 122°36'0 0.0
2017-Aug-11 15:28N 48°31' W 122°36'0 0.0
2017-Aug-11 14:58N 48°31' W 122°36'0 0.0
2017-Aug-11 13:58N 48°31' W 122°36'0 0.0
2017-Aug-11 13:28N 48°31' W 122°36'0 0.0
2017-Aug-11 12:58N 48°31' W 122°36'0 0.0
2017-Aug-11 12:28N 48°31' W 122°36'0 0.0
2017-Aug-11 11:58N 48°31' W 122°36'0 0.0
2017-Aug-11 11:28N 48°31' W 122°36'0 0.0
2017-Aug-11 10:58N 48°31' W 122°36'0 0.0
2017-Aug-11 10:28N 48°31' W 122°36'0 0.0
2017-Aug-11 09:58N 48°31' W 122°36'0 0.0
2017-Aug-11 09:28N 48°31' W 122°36'0 0.0
2017-Aug-11 08:58N 48°31' W 122°36'0 0.0
2017-Aug-11 08:22N 48°31' W 122°36'0 0.0
2017-Aug-11 07:58N 48°31' W 122°36'0 0.0
2017-Aug-11 07:28N 48°31' W 122°36'0 0.0
2017-Aug-11 06:58N 48°31' W 122°36'0 0.0
2017-Aug-11 06:28N 48°31' W 122°36'0 0.0
2017-Aug-11 06:00N 48°31' W 122°36'0 0.1
2017-Aug-11 05:30N 48°31' W 122°36'0 0.8
2017-Aug-11 05:01N 48°31' W 122°36'0 0.3
2017-Aug-11 04:30N 48°31' W 122°36'1 2.9
2017-Aug-11 04:00N 48°32' W 122°34'12 1.3
2017-Aug-10 18:22N 48°33' W 122°53'1 0.1
2017-Aug-10 00:54N 48°35' W 122°53'3 6.3
2017-Aug-10 00:30N 48°33' W 122°56'1 2.0
2017-Aug-10 00:00N 48°32' W 122°56'1 1.0
2017-Aug-09 23:30N 48°31' W 122°56'1 1.9
2017-Aug-09 23:00N 48°32' W 122°57'0 0.5
2017-Aug-09 22:29N 48°32' W 122°57'1 2.1
2017-Aug-09 21:56N 48°32' W 122°58'1 2.1
2017-Aug-09 21:30N 48°33' W 122°60'1 1.4
2017-Aug-09 20:55N 48°33' W 123°01'0 0.0
2017-Aug-09 19:18N 48°33' W 123°01'0 0.9
2017-Aug-09 19:00N 48°32' W 123°01'0 0.0
2017-Aug-09 18:30N 48°32' W 123°01'0 0.0
2017-Aug-09 17:52N 48°32' W 123°01'0 0.0
2017-Aug-09 17:25N 48°32' W 123°01'0 0.5
2017-Aug-09 16:59N 48°33' W 123°01'0 0.0
2017-Aug-09 16:28N 48°33' W 123°01'7 0.2
2017-Aug-07 20:50N 48°33' W 122°50'0 1.2
2017-Aug-07 20:28N 48°33' W 122°50'  

Dump ship's entire track history